sensor_id;sensor_type;location;lat;lon;timestamp;temperature;humidity
31733;DHT22;18312;51.486;7.144;2023-03-20T00:00:02;9.50;99.90
31733;DHT22;18312;51.486;7.144;2023-03-20T00:02:28;9.50;99.90
31733;DHT22;18312;51.486;7.144;2023-03-20T00:04:55;9.50;99.90
31733;DHT22;18312;51.486;7.144;2023-03-20T00:07:22;9.40;99.90
31733;DHT22;18312;51.486;7.144;2023-03-20T00:09:48;9.40;99.90
31733;DHT22;18312;51.486;7.144;2023-03-20T00:12:16;9.40;99.90
31733;DHT22;18312;51.486;7.144;2023-03-20T00:14:43;9.30;99.90
31733;DHT22;18312;51.486;7.144;2023-03-20T00:17:11;9.20;99.90
31733;DHT22;18312;51.486;7.144;2023-03-20T00:19:42;9.30;99.90
31733;DHT22;18312;51.486;7.144;2023-03-20T00:22:09;9.20;99.90
31733;DHT22;18312;51.486;7.144;2023-03-20T00:24:35;9.20;99.90
31733;DHT22;18312;51.486;7.144;2023-03-20T00:27:02;9.20;99.90
31733;DHT22;18312;51.486;7.144;2023-03-20T00:29:30;9.10;99.90
31733;DHT22;18312;51.486;7.144;2023-03-20T00:31:58;9.10;99.90
31733;DHT22;18312;51.486;7.144;2023-03-20T00:34:27;9.10;99.90
31733;DHT22;18312;51.486;7.144;2023-03-20T00:36:55;9.10;99.90
31733;DHT22;18312;51.486;7.144;2023-03-20T00:39:22;9.10;99.90
31733;DHT22;18312;51.486;7.144;2023-03-20T00:41:49;9.10;99.90
31733;DHT22;18312;51.486;7.144;2023-03-20T00:44:21;9.10;99.90
31733;DHT22;18312;51.486;7.144;2023-03-20T00:46:49;9.10;99.90
31733;DHT22;18312;51.486;7.144;2023-03-20T00:49:17;9.10;99.90
31733;DHT22;18312;51.486;7.144;2023-03-20T00:51:45;9.10;99.90
31733;DHT22;18312;51.486;7.144;2023-03-20T00:54:12;9.10;99.90
31733;DHT22;18312;51.486;7.144;2023-03-20T00:56:40;9.10;99.90
31733;DHT22;18312;51.486;7.144;2023-03-20T00:59:08;9.10;99.90
31733;DHT22;18312;51.486;7.144;2023-03-20T01:01:39;9.10;99.90
31733;DHT22;18312;51.486;7.144;2023-03-20T01:04:08;9.10;99.90
31733;DHT22;18312;51.486;7.144;2023-03-20T01:06:35;9.10;99.90
31733;DHT22;18312;51.486;7.144;2023-03-20T01:09:03;9.00;99.90
31733;DHT22;18312;51.486;7.144;2023-03-20T01:11:30;9.00;99.90
31733;DHT22;18312;51.486;7.144;2023-03-20T01:13:57;9.00;99.90
31733;DHT22;18312;51.486;7.144;2023-03-20T01:16:25;9.00;99.90
31733;DHT22;18312;51.486;7.144;2023-03-20T01:18:52;9.00;99.90
31733;DHT22;18312;51.486;7.144;2023-03-20T01:21:19;9.00;99.90
31733;DHT22;18312;51.486;7.144;2023-03-20T01:23:46;9.00;99.90
31733;DHT22;18312;51.486;7.144;2023-03-20T01:26:21;9.00;99.90
31733;DHT22;18312;51.486;7.144;2023-03-20T01:28:48;9.00;99.90
31733;DHT22;18312;51.486;7.144;2023-03-20T01:31:15;9.00;99.90
31733;DHT22;18312;51.486;7.144;2023-03-20T01:33:42;9.00;99.90
31733;DHT22;18312;51.486;7.144;2023-03-20T01:36:09;9.00;99.90
31733;DHT22;18312;51.486;7.144;2023-03-20T01:38:36;8.90;99.90
31733;DHT22;18312;51.486;7.144;2023-03-20T01:41:04;8.90;99.90
31733;DHT22;18312;51.486;7.144;2023-03-20T01:43:33;8.90;99.90
31733;DHT22;18312;51.486;7.144;2023-03-20T01:46:00;8.90;99.90
31733;DHT22;18312;51.486;7.144;2023-03-20T01:48:31;8.90;99.90
31733;DHT22;18312;51.486;7.144;2023-03-20T01:51:00;8.90;99.90
31733;DHT22;18312;51.486;7.144;2023-03-20T01:53:27;8.90;99.90
31733;DHT22;18312;51.486;7.144;2023-03-20T01:55:55;8.90;99.90
31733;DHT22;18312;51.486;7.144;2023-03-20T01:58:23;8.80;99.90
31733;DHT22;18312;51.486;7.144;2023-03-20T02:00:52;8.80;99.90
31733;DHT22;18312;51.486;7.144;2023-03-20T02:03:20;8.80;99.90
31733;DHT22;18312;51.486;7.144;2023-03-20T02:05:46;8.70;99.90
31733;DHT22;18312;51.486;7.144;2023-03-20T02:08:16;8.60;99.90
31733;DHT22;18312;51.486;7.144;2023-03-20T02:10:44;8.50;99.90
31733;DHT22;18312;51.486;7.144;2023-03-20T02:13:11;8.50;99.90
31733;DHT22;18312;51.486;7.144;2023-03-20T02:15:54;8.40;99.90
31733;DHT22;18312;51.486;7.144;2023-03-20T02:18:20;8.30;99.90
31733;DHT22;18312;51.486;7.144;2023-03-20T02:20:49;8.20;99.90
31733;DHT22;18312;51.486;7.144;2023-03-20T02:26:16;8.20;99.90
31733;DHT22;18312;51.486;7.144;2023-03-20T02:29:01;8.30;99.90
31733;DHT22;18312;51.486;7.144;2023-03-20T02:31:39;8.30;99.90
31733;DHT22;18312;51.486;7.144;2023-03-20T02:34:16;8.40;99.90
31733;DHT22;18312;51.486;7.144;2023-03-20T02:37:01;8.40;99.90
31733;DHT22;18312;51.486;7.144;2023-03-20T02:39:40;8.40;99.90
31733;DHT22;18312;51.486;7.144;2023-03-20T02:42:10;8.40;99.90
31733;DHT22;18312;51.486;7.144;2023-03-20T02:44:42;8.30;99.90
31733;DHT22;18312;51.486;7.144;2023-03-20T02:47:12;8.30;99.90
31733;DHT22;18312;51.486;7.144;2023-03-20T02:49:44;8.30;99.90
31733;DHT22;18312;51.486;7.144;2023-03-20T02:52:15;8.30;99.90
31733;DHT22;18312;51.486;7.144;2023-03-20T02:54:44;8.30;99.90
31733;DHT22;18312;51.486;7.144;2023-03-20T02:57:15;8.30;99.90
31733;DHT22;18312;51.486;7.144;2023-03-20T02:59:45;8.30;99.90
31733;DHT22;18312;51.486;7.144;2023-03-20T03:02:14;8.30;99.90
31733;DHT22;18312;51.486;7.144;2023-03-20T03:04:43;8.30;99.90
31733;DHT22;18312;51.486;7.144;2023-03-20T03:07:15;8.30;99.90
31733;DHT22;18312;51.486;7.144;2023-03-20T03:09:48;8.30;99.90
31733;DHT22;18312;51.486;7.144;2023-03-20T03:12:17;8.30;99.90
31733;DHT22;18312;51.486;7.144;2023-03-20T03:14:45;8.30;99.90
31733;DHT22;18312;51.486;7.144;2023-03-20T03:17:12;8.30;99.90
31733;DHT22;18312;51.486;7.144;2023-03-20T03:19:42;8.30;99.90
31733;DHT22;18312;51.486;7.144;2023-03-20T03:22:10;8.30;99.90
31733;DHT22;18312;51.486;7.144;2023-03-20T03:24:38;8.30;99.90
31733;DHT22;18312;51.486;7.144;2023-03-20T03:27:12;8.40;99.90
31733;DHT22;18312;51.486;7.144;2023-03-20T03:29:40;8.40;99.90
31733;DHT22;18312;51.486;7.144;2023-03-20T03:32:18;8.30;99.90
31733;DHT22;18312;51.486;7.144;2023-03-20T03:34:46;8.20;99.90
31733;DHT22;18312;51.486;7.144;2023-03-20T03:37:14;8.20;99.90
31733;DHT22;18312;51.486;7.144;2023-03-20T03:39:44;8.10;99.90
31733;DHT22;18312;51.486;7.144;2023-03-20T03:42:15;8.10;99.90
31733;DHT22;18312;51.486;7.144;2023-03-20T03:44:48;8.00;99.90
31733;DHT22;18312;51.486;7.144;2023-03-20T03:47:20;8.00;99.90
31733;DHT22;18312;51.486;7.144;2023-03-20T03:49:47;7.90;99.90
31733;DHT22;18312;51.486;7.144;2023-03-20T03:52:16;7.90;99.90
31733;DHT22;18312;51.486;7.144;2023-03-20T03:54:46;7.90;99.90
31733;DHT22;18312;51.486;7.144;2023-03-20T03:57:16;7.80;99.90
31733;DHT22;18312;51.486;7.144;2023-03-20T03:59:46;7.80;99.90
31733;DHT22;18312;51.486;7.144;2023-03-20T04:02:13;7.80;99.90
31733;DHT22;18312;51.486;7.144;2023-03-20T04:04:42;7.80;99.90
31733;DHT22;18312;51.486;7.144;2023-03-20T04:07:12;7.80;99.90
31733;DHT22;18312;51.486;7.144;2023-03-20T04:09:38;7.90;99.90
31733;DHT22;18312;51.486;7.144;2023-03-20T04:12:05;8.00;99.90
31733;DHT22;18312;51.486;7.144;2023-03-20T04:14:33;8.00;99.90
31733;DHT22;18312;51.486;7.144;2023-03-20T04:16:59;8.10;99.90
31733;DHT22;18312;51.486;7.144;2023-03-20T04:19:26;8.00;99.90
31733;DHT22;18312;51.486;7.144;2023-03-20T04:21:53;8.10;99.90
31733;DHT22;18312;51.486;7.144;2023-03-20T04:24:20;8.10;99.90
31733;DHT22;18312;51.486;7.144;2023-03-20T04:26:46;8.10;99.90
31733;DHT22;18312;51.486;7.144;2023-03-20T04:29:13;8.10;99.90
31733;DHT22;18312;51.486;7.144;2023-03-20T04:31:41;8.10;99.90
31733;DHT22;18312;51.486;7.144;2023-03-20T04:34:08;8.10;99.90
31733;DHT22;18312;51.486;7.144;2023-03-20T04:36:35;8.10;99.90
31733;DHT22;18312;51.486;7.144;2023-03-20T04:39:01;8.10;99.90
31733;DHT22;18312;51.486;7.144;2023-03-20T04:41:28;8.10;99.90
31733;DHT22;18312;51.486;7.144;2023-03-20T04:43:54;8.10;99.90
31733;DHT22;18312;51.486;7.144;2023-03-20T04:46:21;8.00;99.90
31733;DHT22;18312;51.486;7.144;2023-03-20T04:48:49;7.90;99.90
31733;DHT22;18312;51.486;7.144;2023-03-20T04:51:15;7.80;99.90
31733;DHT22;18312;51.486;7.144;2023-03-20T04:53:42;7.70;99.90
31733;DHT22;18312;51.486;7.144;2023-03-20T04:56:08;7.70;99.90
31733;DHT22;18312;51.486;7.144;2023-03-20T04:58:35;7.60;99.90
31733;DHT22;18312;51.486;7.144;2023-03-20T05:01:01;7.60;99.90
31733;DHT22;18312;51.486;7.144;2023-03-20T05:03:28;7.50;99.90
31733;DHT22;18312;51.486;7.144;2023-03-20T05:05:56;7.50;99.90
31733;DHT22;18312;51.486;7.144;2023-03-20T05:08:23;7.50;99.90
31733;DHT22;18312;51.486;7.144;2023-03-20T05:10:50;7.50;99.90
31733;DHT22;18312;51.486;7.144;2023-03-20T05:13:16;7.50;99.90
31733;DHT22;18312;51.486;7.144;2023-03-20T05:15:43;7.50;99.90
31733;DHT22;18312;51.486;7.144;2023-03-20T05:18:09;7.50;99.90
31733;DHT22;18312;51.486;7.144;2023-03-20T05:20:36;7.50;99.90
31733;DHT22;18312;51.486;7.144;2023-03-20T05:23:04;7.50;99.90
31733;DHT22;18312;51.486;7.144;2023-03-20T05:25:31;7.50;99.90
31733;DHT22;18312;51.486;7.144;2023-03-20T05:27:58;7.50;99.90
31733;DHT22;18312;51.486;7.144;2023-03-20T05:30:24;7.40;99.90
31733;DHT22;18312;51.486;7.144;2023-03-20T05:32:51;7.40;99.90
31733;DHT22;18312;51.486;7.144;2023-03-20T05:35:18;7.40;99.90
31733;DHT22;18312;51.486;7.144;2023-03-20T05:37:44;7.40;99.90
31733;DHT22;18312;51.486;7.144;2023-03-20T05:40:13;7.30;99.90
31733;DHT22;18312;51.486;7.144;2023-03-20T05:42:40;7.30;99.90
31733;DHT22;18312;51.486;7.144;2023-03-20T05:45:07;7.30;99.90
31733;DHT22;18312;51.486;7.144;2023-03-20T05:47:34;7.30;99.90
31733;DHT22;18312;51.486;7.144;2023-03-20T05:50:01;7.30;99.90
31733;DHT22;18312;51.486;7.144;2023-03-20T05:52:27;7.30;99.90
31733;DHT22;18312;51.486;7.144;2023-03-20T05:54:54;7.30;99.90
31733;DHT22;18312;51.486;7.144;2023-03-20T05:57:22;7.30;99.90
31733;DHT22;18312;51.486;7.144;2023-03-20T05:59:48;7.30;99.90
31733;DHT22;18312;51.486;7.144;2023-03-20T06:02:15;7.30;99.90
31733;DHT22;18312;51.486;7.144;2023-03-20T06:04:41;7.30;99.90
31733;DHT22;18312;51.486;7.144;2023-03-20T06:07:08;7.30;99.90
31733;DHT22;18312;51.486;7.144;2023-03-20T06:09:35;7.30;99.90
31733;DHT22;18312;51.486;7.144;2023-03-20T06:12:01;7.30;99.90
31733;DHT22;18312;51.486;7.144;2023-03-20T06:14:29;7.40;99.90
31733;DHT22;18312;51.486;7.144;2023-03-20T06:16:56;7.40;99.90
31733;DHT22;18312;51.486;7.144;2023-03-20T06:19:22;7.40;99.90
31733;DHT22;18312;51.486;7.144;2023-03-20T06:21:49;7.50;99.90
31733;DHT22;18312;51.486;7.144;2023-03-20T06:24:16;7.50;99.90
31733;DHT22;18312;51.486;7.144;2023-03-20T06:26:42;7.50;99.90
31733;DHT22;18312;51.486;7.144;2023-03-20T06:29:09;7.50;99.90
31733;DHT22;18312;51.486;7.144;2023-03-20T06:31:37;7.50;99.90
31733;DHT22;18312;51.486;7.144;2023-03-20T06:34:03;7.60;99.90
31733;DHT22;18312;51.486;7.144;2023-03-20T06:36:30;7.60;99.90
31733;DHT22;18312;51.486;7.144;2023-03-20T06:38:57;7.60;99.90
31733;DHT22;18312;51.486;7.144;2023-03-20T06:41:23;7.50;99.90
31733;DHT22;18312;51.486;7.144;2023-03-20T06:43:50;7.50;99.90
31733;DHT22;18312;51.486;7.144;2023-03-20T06:46:16;7.50;99.90
31733;DHT22;18312;51.486;7.144;2023-03-20T06:48:44;7.50;99.90
31733;DHT22;18312;51.486;7.144;2023-03-20T06:51:11;7.60;99.90
31733;DHT22;18312;51.486;7.144;2023-03-20T06:53:38;7.60;99.90
31733;DHT22;18312;51.486;7.144;2023-03-20T06:56:06;7.70;99.90
31733;DHT22;18312;51.486;7.144;2023-03-20T06:58:33;7.70;99.90
31733;DHT22;18312;51.486;7.144;2023-03-20T07:00:59;7.80;99.90
31733;DHT22;18312;51.486;7.144;2023-03-20T07:03:26;7.90;99.90
31733;DHT22;18312;51.486;7.144;2023-03-20T07:05:55;7.90;99.90
31733;DHT22;18312;51.486;7.144;2023-03-20T07:08:22;8.00;99.90
31733;DHT22;18312;51.486;7.144;2023-03-20T07:10:49;8.00;99.90
31733;DHT22;18312;51.486;7.144;2023-03-20T07:13:16;8.10;99.90
31733;DHT22;18312;51.486;7.144;2023-03-20T07:15:42;8.10;99.90
31733;DHT22;18312;51.486;7.144;2023-03-20T07:18:09;8.20;99.90
31733;DHT22;18312;51.486;7.144;2023-03-20T07:20:35;8.20;99.90
31733;DHT22;18312;51.486;7.144;2023-03-20T07:23:03;8.20;99.90
31733;DHT22;18312;51.486;7.144;2023-03-20T07:25:30;8.30;99.90
31733;DHT22;18312;51.486;7.144;2023-03-20T07:27:57;8.30;99.90
31733;DHT22;18312;51.486;7.144;2023-03-20T07:30:24;8.40;99.90
31733;DHT22;18312;51.486;7.144;2023-03-20T07:32:50;8.40;99.90
31733;DHT22;18312;51.486;7.144;2023-03-20T07:35:17;8.50;99.90
31733;DHT22;18312;51.486;7.144;2023-03-20T07:37:44;8.60;99.90
31733;DHT22;18312;51.486;7.144;2023-03-20T07:40:12;8.60;99.90
31733;DHT22;18312;51.486;7.144;2023-03-20T07:42:39;8.90;99.90
31733;DHT22;18312;51.486;7.144;2023-03-20T07:45:06;9.00;99.90
31733;DHT22;18312;51.486;7.144;2023-03-20T07:47:34;9.10;99.90
31733;DHT22;18312;51.486;7.144;2023-03-20T07:50:01;9.00;99.90
31733;DHT22;18312;51.486;7.144;2023-03-20T07:52:28;9.20;99.90
31733;DHT22;18312;51.486;7.144;2023-03-20T07:54:54;9.20;99.90
31733;DHT22;18312;51.486;7.144;2023-03-20T07:57:22;9.20;99.90
31733;DHT22;18312;51.486;7.144;2023-03-20T07:59:49;9.20;99.90
31733;DHT22;18312;51.486;7.144;2023-03-20T08:02:16;9.20;99.90
31733;DHT22;18312;51.486;7.144;2023-03-20T08:04:43;9.30;99.90
31733;DHT22;18312;51.486;7.144;2023-03-20T08:07:10;9.20;99.90
31733;DHT22;18312;51.486;7.144;2023-03-20T08:09:37;9.30;99.90
31733;DHT22;18312;51.486;7.144;2023-03-20T08:12:04;9.30;99.90
31733;DHT22;18312;51.486;7.144;2023-03-20T08:14:32;9.40;99.90
31733;DHT22;18312;51.486;7.144;2023-03-20T08:16:59;9.70;99.90
31733;DHT22;18312;51.486;7.144;2023-03-20T08:19:26;9.90;99.90
31733;DHT22;18312;51.486;7.144;2023-03-20T08:21:52;10.10;99.90
31733;DHT22;18312;51.486;7.144;2023-03-20T08:24:19;10.30;99.90
31733;DHT22;18312;51.486;7.144;2023-03-20T08:26:46;10.40;99.90
31733;DHT22;18312;51.486;7.144;2023-03-20T08:29:12;10.70;99.90
31733;DHT22;18312;51.486;7.144;2023-03-20T08:31:42;10.70;99.90
31733;DHT22;18312;51.486;7.144;2023-03-20T08:34:09;10.60;99.90
31733;DHT22;18312;51.486;7.144;2023-03-20T08:36:36;10.40;99.90
31733;DHT22;18312;51.486;7.144;2023-03-20T08:39:03;10.30;99.90
31733;DHT22;18312;51.486;7.144;2023-03-20T08:41:31;10.50;99.90
31733;DHT22;18312;51.486;7.144;2023-03-20T08:43:57;10.50;99.90
31733;DHT22;18312;51.486;7.144;2023-03-20T08:46:24;10.30;99.90
31733;DHT22;18312;51.486;7.144;2023-03-20T08:48:52;10.50;99.90
31733;DHT22;18312;51.486;7.144;2023-03-20T08:51:19;10.70;99.90
31733;DHT22;18312;51.486;7.144;2023-03-20T08:53:45;10.50;99.90
31733;DHT22;18312;51.486;7.144;2023-03-20T08:56:12;10.60;99.90
31733;DHT22;18312;51.486;7.144;2023-03-20T08:58:38;10.70;99.90
31733;DHT22;18312;51.486;7.144;2023-03-20T09:01:05;10.80;99.90
31733;DHT22;18312;51.486;7.144;2023-03-20T09:03:32;10.80;99.90
31733;DHT22;18312;51.486;7.144;2023-03-20T09:06:00;10.90;99.90
31733;DHT22;18312;51.486;7.144;2023-03-20T09:08:27;10.70;99.90
31733;DHT22;18312;51.486;7.144;2023-03-20T09:10:54;10.70;99.90
31733;DHT22;18312;51.486;7.144;2023-03-20T09:13:20;10.40;99.90
31733;DHT22;18312;51.486;7.144;2023-03-20T09:15:47;10.50;99.90
31733;DHT22;18312;51.486;7.144;2023-03-20T09:18:14;10.50;99.90
31733;DHT22;18312;51.486;7.144;2023-03-20T09:20:41;10.60;99.90
31733;DHT22;18312;51.486;7.144;2023-03-20T09:23:08;10.50;99.90
31733;DHT22;18312;51.486;7.144;2023-03-20T09:25:35;10.30;99.90
31733;DHT22;18312;51.486;7.144;2023-03-20T09:28:02;10.40;99.90
31733;DHT22;18312;51.486;7.144;2023-03-20T09:30:28;10.40;99.90
31733;DHT22;18312;51.486;7.144;2023-03-20T09:32:55;10.40;99.90
31733;DHT22;18312;51.486;7.144;2023-03-20T09:35:22;10.30;99.90
31733;DHT22;18312;51.486;7.144;2023-03-20T09:37:48;10.30;99.90
31733;DHT22;18312;51.486;7.144;2023-03-20T09:40:21;10.20;99.90
31733;DHT22;18312;51.486;7.144;2023-03-20T09:42:50;10.10;99.90
31733;DHT22;18312;51.486;7.144;2023-03-20T09:45:19;10.10;99.90
31733;DHT22;18312;51.486;7.144;2023-03-20T09:47:50;10.10;99.90
31733;DHT22;18312;51.486;7.144;2023-03-20T09:50:24;10.20;99.90
31733;DHT22;18312;51.486;7.144;2023-03-20T09:52:53;10.20;99.90
31733;DHT22;18312;51.486;7.144;2023-03-20T09:55:24;10.40;99.90
31733;DHT22;18312;51.486;7.144;2023-03-20T09:57:53;10.40;99.90
31733;DHT22;18312;51.486;7.144;2023-03-20T10:00:23;10.30;99.90
31733;DHT22;18312;51.486;7.144;2023-03-20T10:02:50;10.50;99.90
31733;DHT22;18312;51.486;7.144;2023-03-20T10:05:19;10.60;99.90
31733;DHT22;18312;51.486;7.144;2023-03-20T10:07:46;10.40;99.90
31733;DHT22;18312;51.486;7.144;2023-03-20T10:10:13;10.40;99.90
31733;DHT22;18312;51.486;7.144;2023-03-20T10:12:47;10.20;99.90
31733;DHT22;18312;51.486;7.144;2023-03-20T10:15:17;10.50;99.90
31733;DHT22;18312;51.486;7.144;2023-03-20T10:17:49;10.40;99.90
31733;DHT22;18312;51.486;7.144;2023-03-20T10:20:20;10.60;99.90
31733;DHT22;18312;51.486;7.144;2023-03-20T10:22:48;10.50;99.90
31733;DHT22;18312;51.486;7.144;2023-03-20T10:25:21;10.30;99.90
31733;DHT22;18312;51.486;7.144;2023-03-20T10:27:49;10.30;99.90
31733;DHT22;18312;51.486;7.144;2023-03-20T10:30:21;10.50;99.90
31733;DHT22;18312;51.486;7.144;2023-03-20T10:32:50;10.50;99.90
31733;DHT22;18312;51.486;7.144;2023-03-20T10:35:19;10.60;99.90
31733;DHT22;18312;51.486;7.144;2023-03-20T10:40:32;10.70;99.90
31733;DHT22;18312;51.486;7.144;2023-03-20T10:43:02;10.90;99.90
31733;DHT22;18312;51.486;7.144;2023-03-20T10:45:33;10.80;99.90
31733;DHT22;18312;51.486;7.144;2023-03-20T10:48:03;10.80;99.90
31733;DHT22;18312;51.486;7.144;2023-03-20T10:50:32;10.80;99.90
31733;DHT22;18312;51.486;7.144;2023-03-20T10:53:00;10.90;99.90
31733;DHT22;18312;51.486;7.144;2023-03-20T10:55:29;10.80;99.90
31733;DHT22;18312;51.486;7.144;2023-03-20T10:57:59;10.90;99.90
31733;DHT22;18312;51.486;7.144;2023-03-20T11:00:28;10.90;99.90
31733;DHT22;18312;51.486;7.144;2023-03-20T11:02:55;11.10;99.90
31733;DHT22;18312;51.486;7.144;2023-03-20T11:05:22;11.00;99.90
31733;DHT22;18312;51.486;7.144;2023-03-20T11:07:50;11.10;99.90
31733;DHT22;18312;51.486;7.144;2023-03-20T11:10:25;11.00;99.90
31733;DHT22;18312;51.486;7.144;2023-03-20T11:12:52;11.00;99.90
31733;DHT22;18312;51.486;7.144;2023-03-20T11:15:20;11.20;99.90
31733;DHT22;18312;51.486;7.144;2023-03-20T11:17:53;11.30;99.90
31733;DHT22;18312;51.486;7.144;2023-03-20T11:20:20;11.30;99.90
31733;DHT22;18312;51.486;7.144;2023-03-20T11:22:47;11.40;99.90
31733;DHT22;18312;51.486;7.144;2023-03-20T11:25:21;11.40;99.90
31733;DHT22;18312;51.486;7.144;2023-03-20T11:27:49;11.40;99.90
31733;DHT22;18312;51.486;7.144;2023-03-20T11:30:16;11.50;99.90
31733;DHT22;18312;51.486;7.144;2023-03-20T11:32:44;11.60;99.90
31733;DHT22;18312;51.486;7.144;2023-03-20T11:35:18;11.60;99.90
31733;DHT22;18312;51.486;7.144;2023-03-20T11:37:45;11.50;99.90
31733;DHT22;18312;51.486;7.144;2023-03-20T11:40:13;11.70;99.90
31733;DHT22;18312;51.486;7.144;2023-03-20T11:42:50;11.40;99.90
31733;DHT22;18312;51.486;7.144;2023-03-20T11:45:17;11.30;99.90
31733;DHT22;18312;51.486;7.144;2023-03-20T11:47:47;11.40;99.90
31733;DHT22;18312;51.486;7.144;2023-03-20T11:50:24;11.40;99.90
31733;DHT22;18312;51.486;7.144;2023-03-20T11:52:51;11.30;99.90
31733;DHT22;18312;51.486;7.144;2023-03-20T11:55:22;11.30;99.90
31733;DHT22;18312;51.486;7.144;2023-03-20T11:57:50;11.60;99.90
31733;DHT22;18312;51.486;7.144;2023-03-20T12:00:21;11.50;99.90
31733;DHT22;18312;51.486;7.144;2023-03-20T12:02:48;11.30;99.90
31733;DHT22;18312;51.486;7.144;2023-03-20T12:05:19;11.10;99.90
31733;DHT22;18312;51.486;7.144;2023-03-20T12:07:53;11.00;99.90
31733;DHT22;18312;51.486;7.144;2023-03-20T12:10:22;11.10;99.90
31733;DHT22;18312;51.486;7.144;2023-03-20T12:12:53;11.40;99.90
31733;DHT22;18312;51.486;7.144;2023-03-20T12:15:23;11.10;99.90
31733;DHT22;18312;51.486;7.144;2023-03-20T12:17:52;11.20;99.90
31733;DHT22;18312;51.486;7.144;2023-03-20T12:20:27;11.10;99.90
31733;DHT22;18312;51.486;7.144;2023-03-20T12:22:59;11.00;99.90
31733;DHT22;18312;51.486;7.144;2023-03-20T12:25:28;11.00;99.90
31733;DHT22;18312;51.486;7.144;2023-03-20T12:28:01;11.30;99.90
31733;DHT22;18312;51.486;7.144;2023-03-20T12:30:30;11.40;99.90
31733;DHT22;18312;51.486;7.144;2023-03-20T12:32:58;11.20;99.90
31733;DHT22;18312;51.486;7.144;2023-03-20T12:35:26;11.00;99.90
31733;DHT22;18312;51.486;7.144;2023-03-20T12:37:53;11.00;99.90
31733;DHT22;18312;51.486;7.144;2023-03-20T12:40:21;10.90;99.90
31733;DHT22;18312;51.486;7.144;2023-03-20T12:42:53;11.00;99.90
31733;DHT22;18312;51.486;7.144;2023-03-20T12:45:22;10.90;99.90
31733;DHT22;18312;51.486;7.144;2023-03-20T12:47:56;11.00;99.90
31733;DHT22;18312;51.486;7.144;2023-03-20T12:50:29;11.10;99.90
31733;DHT22;18312;51.486;7.144;2023-03-20T12:53:00;11.10;99.90
31733;DHT22;18312;51.486;7.144;2023-03-20T12:55:32;11.40;99.90
31733;DHT22;18312;51.486;7.144;2023-03-20T12:58:04;11.50;99.90
31733;DHT22;18312;51.486;7.144;2023-03-20T13:00:34;11.50;99.90
31733;DHT22;18312;51.486;7.144;2023-03-20T13:03:09;11.40;99.90
31733;DHT22;18312;51.486;7.144;2023-03-20T13:05:41;11.20;99.90
31733;DHT22;18312;51.486;7.144;2023-03-20T13:08:15;11.30;99.90
31733;DHT22;18312;51.486;7.144;2023-03-20T13:10:48;11.30;99.90
31733;DHT22;18312;51.486;7.144;2023-03-20T13:13:19;11.10;99.90
31733;DHT22;18312;51.486;7.144;2023-03-20T13:15:55;11.30;99.90
31733;DHT22;18312;51.486;7.144;2023-03-20T13:18:27;11.30;99.90
31733;DHT22;18312;51.486;7.144;2023-03-20T13:20:59;11.10;99.90
31733;DHT22;18312;51.486;7.144;2023-03-20T13:23:29;10.80;99.90
31733;DHT22;18312;51.486;7.144;2023-03-20T13:26:01;10.70;99.90
31733;DHT22;18312;51.486;7.144;2023-03-20T13:28:30;10.90;99.90
31733;DHT22;18312;51.486;7.144;2023-03-20T13:31:00;10.90;99.90
31733;DHT22;18312;51.486;7.144;2023-03-20T13:33:33;10.80;99.90
31733;DHT22;18312;51.486;7.144;2023-03-20T13:36:02;10.60;99.90
31733;DHT22;18312;51.486;7.144;2023-03-20T13:38:32;10.80;99.90
31733;DHT22;18312;51.486;7.144;2023-03-20T13:40:59;10.90;99.90
31733;DHT22;18312;51.486;7.144;2023-03-20T13:43:29;10.70;99.90
31733;DHT22;18312;51.486;7.144;2023-03-20T13:45:58;10.80;99.90
31733;DHT22;18312;51.486;7.144;2023-03-20T13:48:28;10.90;99.90
31733;DHT22;18312;51.486;7.144;2023-03-20T13:50:56;10.50;99.90
31733;DHT22;18312;51.486;7.144;2023-03-20T13:53:27;10.60;99.90
31733;DHT22;18312;51.486;7.144;2023-03-20T13:55:58;10.60;99.90
31733;DHT22;18312;51.486;7.144;2023-03-20T13:58:31;10.60;99.90
31733;DHT22;18312;51.486;7.144;2023-03-20T14:01:02;10.50;99.90
31733;DHT22;18312;51.486;7.144;2023-03-20T14:03:31;10.60;99.90
31733;DHT22;18312;51.486;7.144;2023-03-20T14:05:58;10.70;99.90
31733;DHT22;18312;51.486;7.144;2023-03-20T14:08:32;10.60;99.90
31733;DHT22;18312;51.486;7.144;2023-03-20T14:11:11;10.50;99.90
31733;DHT22;18312;51.486;7.144;2023-03-20T14:13:40;10.60;99.90
31733;DHT22;18312;51.486;7.144;2023-03-20T14:16:08;10.50;99.90
31733;DHT22;18312;51.486;7.144;2023-03-20T14:18:36;10.60;99.90
31733;DHT22;18312;51.486;7.144;2023-03-20T14:21:03;10.70;99.90
31733;DHT22;18312;51.486;7.144;2023-03-20T14:23:35;10.70;99.90
31733;DHT22;18312;51.486;7.144;2023-03-20T14:26:09;10.90;99.90
31733;DHT22;18312;51.486;7.144;2023-03-20T14:28:45;10.80;99.90
31733;DHT22;18312;51.486;7.144;2023-03-20T14:31:21;10.60;99.90
31733;DHT22;18312;51.486;7.144;2023-03-20T14:33:53;10.40;99.90
31733;DHT22;18312;51.486;7.144;2023-03-20T14:36:25;10.30;99.90
31733;DHT22;18312;51.486;7.144;2023-03-20T14:38:54;10.40;99.90
31733;DHT22;18312;51.486;7.144;2023-03-20T14:41:25;10.50;99.90
31733;DHT22;18312;51.486;7.144;2023-03-20T14:44:01;10.30;99.90
31733;DHT22;18312;51.486;7.144;2023-03-20T14:46:33;10.60;99.90
31733;DHT22;18312;51.486;7.144;2023-03-20T14:49:13;10.80;99.90
31733;DHT22;18312;51.486;7.144;2023-03-20T14:51:44;10.70;99.90
31733;DHT22;18312;51.486;7.144;2023-03-20T14:54:21;11.00;99.90
31733;DHT22;18312;51.486;7.144;2023-03-20T14:56:48;11.00;99.90
31733;DHT22;18312;51.486;7.144;2023-03-20T14:59:17;11.20;99.90
31733;DHT22;18312;51.486;7.144;2023-03-20T15:01:45;11.10;99.90
31733;DHT22;18312;51.486;7.144;2023-03-20T15:04:24;10.90;99.90
31733;DHT22;18312;51.486;7.144;2023-03-20T15:06:52;10.90;99.90
31733;DHT22;18312;51.486;7.144;2023-03-20T15:09:20;10.80;99.90
31733;DHT22;18312;51.486;7.144;2023-03-20T15:11:47;10.80;99.90
31733;DHT22;18312;51.486;7.144;2023-03-20T15:14:16;10.80;99.90
31733;DHT22;18312;51.486;7.144;2023-03-20T15:16:45;10.90;99.90
31733;DHT22;18312;51.486;7.144;2023-03-20T15:19:14;10.90;99.90
31733;DHT22;18312;51.486;7.144;2023-03-20T15:21:43;10.90;99.90
31733;DHT22;18312;51.486;7.144;2023-03-20T15:24:15;10.80;99.90
31733;DHT22;18312;51.486;7.144;2023-03-20T15:26:43;10.80;99.90
31733;DHT22;18312;51.486;7.144;2023-03-20T15:29:10;10.70;99.90
31733;DHT22;18312;51.486;7.144;2023-03-20T15:31:38;10.70;99.90
31733;DHT22;18312;51.486;7.144;2023-03-20T15:34:07;10.60;99.90
31733;DHT22;18312;51.486;7.144;2023-03-20T15:36:35;10.60;99.90
31733;DHT22;18312;51.486;7.144;2023-03-20T15:39:05;10.60;99.90
31733;DHT22;18312;51.486;7.144;2023-03-20T15:41:34;10.50;99.90
31733;DHT22;18312;51.486;7.144;2023-03-20T15:44:03;10.20;99.90
31733;DHT22;18312;51.486;7.144;2023-03-20T15:46:37;10.00;99.90
31733;DHT22;18312;51.486;7.144;2023-03-20T15:49:04;10.10;99.90
31733;DHT22;18312;51.486;7.144;2023-03-20T15:51:32;10.30;99.90
31733;DHT22;18312;51.486;7.144;2023-03-20T15:53:59;10.40;99.90